Time;durP1;ratioP1;P1;durP2;ratioP2;P2;SDS_P1;SDS_P2;PMS_P1;PMS_P2;Temp;Humidity;BMP_temperature;BMP_pressure;BME280_temperature;BME280_humidity;BME280_pressure;Samples;Min_cycle;Max_cycle;Signal;HPM_P1;HPM_P2
2022/09/06 00:01:16;;;;;;;2.47;1.70;;;24.30;51.80;;;;;;5045117;28;20488;-85
2022/09/06 00:03:44;;;;;;;2.20;1.97;;;24.30;51.90;;;;;;5041442;28;20433;-84
2022/09/06 00:06:13;;;;;;;1.87;1.77;;;24.20;51.70;;;;;;5032258;28;20449;-83
2022/09/06 00:08:42;;;;;;;2.30;1.87;;;24.10;51.90;;;;;;5041404;28;20537;-83
2022/09/06 00:11:10;;;;;;;3.37;1.97;;;24.20;51.60;;;;;;5043376;28;20472;-83
2022/09/06 00:13:38;;;;;;;1.80;1.70;;;24.10;51.70;;;;;;5038078;28;20447;-83
2022/09/06 00:16:14;;;;;;;1.90;1.80;;;24.10;51.70;;;;;;5036098;28;20529;-84
2022/09/06 00:18:42;;;;;;;6.63;2.50;;;24.10;52.30;;;;;;5053989;28;20480;-84
2022/09/06 00:21:19;;;;;;;2.00;1.90;;;24.10;55.70;;;;;;5042351;28;20460;-85
2022/09/06 00:23:46;;;;;;;3.37;2.33;;;24.00;57.60;;;;;;5042264;28;20632;-85
2022/09/06 00:26:14;;;;;;;2.50;2.30;;;24.10;58.70;;;;;;5031730;28;20445;-84
2022/09/06 00:28:41;;;;;;;2.90;2.50;;;24.00;60.70;;;;;;5030485;28;20474;-84
2022/09/06 00:31:14;;;;;;;6.10;3.60;;;23.70;61.70;;;;;;5039599;28;20473;-84
2022/09/06 00:33:42;;;;;;;8.40;3.70;;;23.50;64.70;;;;;;5032907;28;20476;-84
2022/09/06 00:36:12;;;;;;;5.00;3.60;;;23.60;69.30;;;;;;5037249;28;20969;-83
2022/09/06 00:38:40;;;;;;;7.57;4.20;;;23.40;75.20;;;;;;5034557;28;20465;-84
2022/09/06 00:41:09;;;;;;;4.30;3.90;;;23.40;80.40;;;;;;5040346;28;20529;-83
2022/09/06 00:43:38;;;;;;;4.30;3.63;;;23.30;87.10;;;;;;5035101;28;20449;-83
2022/09/06 00:46:07;;;;;;;5.90;3.77;;;23.20;91.50;;;;;;5030875;28;20529;-82
2022/09/06 00:48:37;;;;;;;4.83;3.30;;;23.10;93.30;;;;;;5032217;28;20458;-83
2022/09/06 00:51:10;;;;;;;3.37;3.07;;;23.00;94.60;;;;;;5033009;28;20473;-83
2022/09/06 00:53:38;;;;;;;4.97;2.80;;;22.90;95.50;;;;;;5038408;28;20430;-84
2022/09/06 00:56:05;;;;;;;3.10;2.90;;;22.80;95.60;;;;;;5037799;28;20441;-84
2022/09/06 00:58:33;;;;;;;4.20;3.37;;;22.80;96.10;;;;;;5039110;28;20453;-84
2022/09/06 01:01:00;;;;;;;4.30;3.90;;;22.70;96.50;;;;;;5035481;28;20477;-82
2022/09/06 01:03:28;;;;;;;3.33;3.10;;;22.70;97.00;;;;;;5038956;28;20750;-82
2022/09/06 01:06:14;;;;;;;3.53;3.23;;;22.70;97.30;;;;;;5042649;28;20882;-82
2022/09/06 01:09:01;;;;;;;7.17;3.63;;;22.70;97.60;;;;;;5053513;28;20461;-84
2022/09/06 01:12:05;;;;;;;4.77;4.00;;;22.60;97.00;;;;;;5040320;28;20465;-82
2022/09/06 01:14:56;;;;;;;5.30;4.40;;;22.60;96.70;;;;;;5045566;28;20456;-84
2022/09/06 01:17:53;;;;;;;7.70;3.97;;;22.60;97.00;;;;;;5038584;28;20433;-86
2022/09/06 01:20:41;;;;;;;6.93;4.03;;;22.60;97.20;;;;;;5040551;28;20434;-84
2022/09/06 01:23:29;;;;;;;5.53;3.80;;;22.60;97.50;;;;;;5047443;28;20448;-85
2022/09/06 01:26:34;;;;;;;6.47;3.80;;;22.60;97.30;;;;;;5048102;28;20441;-84
2022/09/06 01:29:06;;;;;;;4.10;3.63;;;22.60;97.40;;;;;;5046537;28;20467;-83
2022/09/06 01:31:43;;;;;;;4.80;3.67;;;22.60;97.20;;;;;;5043526;28;20479;-84
2022/09/06 01:34:34;;;;;;;4.00;3.63;;;22.50;97.00;;;;;;5044088;28;20440;-84
2022/09/06 01:37:08;;;;;;;4.20;3.50;;;22.50;97.20;;;;;;5040659;28;20465;-84
2022/09/06 01:39:37;;;;;;;6.10;3.37;;;22.50;97.30;;;;;;5041295;28;20887;-84
2022/09/06 01:42:25;;;;;;;3.60;3.30;;;22.50;97.10;;;;;;5044507;28;20453;-80
2022/09/06 01:45:08;;;;;;;4.73;4.00;;;22.60;97.00;;;;;;5047852;28;20496;-86
2022/09/06 01:48:01;;;;;;;6.10;4.10;;;22.60;97.20;;;;;;5046107;28;20451;-85
2022/09/06 01:50:52;;;;;;;3.57;3.27;;;22.50;97.40;;;;;;5037088;28;20487;-84
2022/09/06 01:53:59;;;;;;;7.17;4.17;;;22.50;97.40;;;;;;5044520;28;20484;-84
2022/09/06 01:56:32;;;;;;;3.80;3.50;;;22.50;97.20;;;;;;5034855;28;20525;-84
2022/09/06 01:59:29;;;;;;;3.83;3.53;;;22.60;97.60;;;;;;5047287;28;20475;-84
2022/09/06 02:02:05;;;;;;;4.37;3.67;;;22.70;97.70;;;;;;5034260;28;21037;-85
2022/09/06 02:04:56;;;;;;;3.53;3.23;;;22.60;97.20;;;;;;5052839;28;20441;-84
2022/09/06 02:07:27;;;;;;;4.00;3.70;;;22.50;97.20;;;;;;5044512;28;20449;-83
2022/09/06 02:10:01;;;;;;;4.90;4.40;;;22.70;97.00;;;;;;5048548;28;20449;-84
2022/09/06 02:12:31;;;;;;;5.53;4.87;;;22.70;97.00;;;;;;5045062;28;20420;-84
2022/09/06 02:15:08;;;;;;;5.17;3.53;;;22.60;97.40;;;;;;5049296;28;20547;-85
2022/09/06 02:17:40;;;;;;;5.00;4.00;;;22.50;97.80;;;;;;5045556;28;20448;-83
2022/09/06 02:20:13;;;;;;;3.87;3.53;;;22.50;98.10;;;;;;5042757;28;21042;-84
2022/09/06 02:22:45;;;;;;;4.83;4.20;;;22.50;98.50;;;;;;5043061;28;20525;-85
2022/09/06 02:25:20;;;;;;;4.90;3.77;;;22.50;98.10;;;;;;5041255;28;20460;-84
2022/09/06 02:27:47;;;;;;;5.33;4.80;;;22.50;98.00;;;;;;5040278;28;20484;-83
2022/09/06 02:30:14;;;;;;;6.00;3.77;;;22.60;97.80;;;;;;5043221;28;20896;-83
2022/09/06 02:32:54;;;;;;;4.83;3.97;;;22.80;97.60;;;;;;5048538;28;20505;-83
2022/09/06 02:35:22;;;;;;;4.77;4.37;;;22.90;96.80;;;;;;5044544;28;20476;-85
2022/09/06 02:37:49;;;;;;;4.70;4.30;;;22.90;96.80;;;;;;5047242;28;20580;-83
2022/09/06 02:40:17;;;;;;;10.10;4.53;;;22.80;96.50;;;;;;5046304;28;20450;-85
2022/09/06 02:42:44;;;;;;;4.20;3.80;;;22.80;97.10;;;;;;5044582;28;20532;-85
2022/09/06 02:45:10;;;;;;;5.70;4.20;;;22.70;97.20;;;;;;5043151;28;20456;-84
2022/09/06 02:47:37;;;;;;;5.53;5.03;;;22.50;97.40;;;;;;5041141;28;20448;-86
2022/09/06 02:50:06;;;;;;;5.00;4.50;;;22.50;97.90;;;;;;5045568;28;20544;-84
2022/09/06 02:52:33;;;;;;;7.00;5.83;;;22.60;97.60;;;;;;5040679;28;20484;-82
2022/09/06 02:55:00;;;;;;;5.10;4.50;;;22.70;97.00;;;;;;5045558;28;20442;-85
2022/09/06 02:57:28;;;;;;;4.67;4.23;;;22.50;96.90;;;;;;5045959;28;20492;-85
2022/09/06 02:59:54;;;;;;;5.00;3.97;;;22.40;97.60;;;;;;5043559;28;20462;-84
2022/09/06 03:02:21;;;;;;;5.20;4.27;;;22.50;97.80;;;;;;5045085;28;20504;-84
2022/09/06 03:04:48;;;;;;;5.90;3.93;;;22.30;98.20;;;;;;5046472;28;20445;-85
2022/09/06 03:07:15;;;;;;;5.63;4.30;;;22.20;98.90;;;;;;5046557;28;20471;-85
2022/09/06 03:09:42;;;;;;;5.20;4.00;;;22.10;99.30;;;;;;5045110;28;20488;-84
2022/09/06 03:12:08;;;;;;;6.70;4.40;;;22.10;99.80;;;;;;5045406;28;21056;-85
2022/09/06 03:14:35;;;;;;;4.90;4.50;;;22.10;99.80;;;;;;5043793;28;20452;-83
2022/09/06 03:17:03;;;;;;;5.10;4.27;;;22.10;99.90;;;;;;5044349;28;20523;-84
2022/09/06 03:19:30;;;;;;;4.63;4.13;;;22.10;99.90;;;;;;5045059;28;20998;-84
2022/09/06 03:21:57;;;;;;;4.53;4.10;;;22.10;99.90;;;;;;5046063;28;20465;-82
2022/09/06 03:24:24;;;;;;;4.30;4.00;;;22.00;99.90;;;;;;5041524;28;20461;-85
2022/09/06 03:26:51;;;;;;;4.77;4.30;;;22.20;99.70;;;;;;5046516;28;20457;-85
2022/09/06 03:29:18;;;;;;;5.27;4.73;;;22.10;99.40;;;;;;5047124;28;20486;-84
2022/09/06 03:31:44;;;;;;;5.13;4.57;;;22.00;99.60;;;;;;5047322;28;20484;-85
2022/09/06 03:34:11;;;;;;;4.40;3.87;;;22.00;99.90;;;;;;5043760;28;20477;-85
2022/09/06 03:36:38;;;;;;;4.50;4.10;;;21.90;99.90;;;;;;5045340;28;20453;-85
2022/09/06 03:39:05;;;;;;;4.37;3.97;;;21.80;99.90;;;;;;5049864;28;20495;-83
2022/09/06 03:41:32;;;;;;;5.20;4.37;;;21.80;99.90;;;;;;5045027;28;20485;-83
2022/09/06 03:43:59;;;;;;;5.17;4.40;;;21.80;99.90;;;;;;5043678;28;20574;-84
2022/09/06 03:46:29;;;;;;;4.47;4.10;;;21.90;99.90;;;;;;5039775;28;20833;-84
2022/09/06 03:49:00;;;;;;;5.13;4.30;;;21.90;99.90;;;;;;5042365;28;20889;-85
2022/09/06 03:51:27;;;;;;;4.50;4.03;;;21.90;99.80;;;;;;5043433;28;20485;-84
2022/09/06 03:53:54;;;;;;;5.10;4.60;;;21.80;99.90;;;;;;5044702;28;20453;-85
2022/09/06 03:56:21;;;;;;;4.70;4.30;;;21.70;99.90;;;;;;5042924;28;20901;-85
2022/09/06 03:58:47;;;;;;;4.50;4.10;;;21.70;99.90;;;;;;5043090;28;20476;-84
2022/09/06 04:01:14;;;;;;;4.57;3.93;;;21.70;99.90;;;;;;5044125;28;20467;-84
2022/09/06 04:03:41;;;;;;;4.43;4.03;;;21.70;99.90;;;;;;5045443;28;20461;-82
2022/09/06 04:06:08;;;;;;;4.90;4.50;;;22.10;99.90;;;;;;5050574;28;20441;-86
2022/09/06 04:08:36;;;;;;;6.73;5.30;;;22.10;99.90;;;;;;5045096;28;20477;-81
2022/09/06 04:11:03;;;;;;;5.23;4.63;;;22.10;99.90;;;;;;5038006;28;20464;-83
2022/09/06 04:13:31;;;;;;;5.40;4.90;;;22.00;99.90;;;;;;5039825;28;20448;-82
2022/09/06 04:15:58;;;;;;;7.33;4.83;;;21.90;99.90;;;;;;5039370;28;20472;-84
2022/09/06 04:18:26;;;;;;;6.57;4.20;;;21.80;99.90;;;;;;5035465;28;20466;-82
2022/09/06 04:20:57;;;;;;;6.00;4.57;;;21.80;99.90;;;;;;5042300;28;20519;-83
2022/09/06 04:23:26;;;;;;;5.00;4.57;;;21.80;99.90;;;;;;5043699;28;20446;-84
2022/09/06 04:25:55;;;;;;;7.43;5.40;;;22.00;99.90;;;;;;5043911;28;20458;-83
2022/09/06 04:28:23;;;;;;;5.97;5.10;;;21.80;99.90;;;;;;5041859;28;20481;-83
2022/09/06 04:30:52;;;;;;;7.40;4.70;;;21.80;99.90;;;;;;5052715;28;20438;-84
2022/09/06 04:33:20;;;;;;;5.30;4.87;;;21.60;99.90;;;;;;5057221;28;20452;-84
2022/09/06 04:35:49;;;;;;;6.03;5.53;;;21.60;99.90;;;;;;5056966;28;20449;-84
2022/09/06 04:38:15;;;;;;;5.67;4.90;;;21.40;99.90;;;;;;5056137;28;20457;-82
2022/09/06 04:40:42;;;;;;;8.17;6.23;;;21.50;99.90;;;;;;5057965;28;20449;-83
2022/09/06 04:43:09;;;;;;;5.33;4.73;;;21.40;99.90;;;;;;5048087;28;20445;-80
2022/09/06 04:45:37;;;;;;;6.90;5.00;;;21.50;99.90;;;;;;5034921;28;20484;-82
2022/09/06 04:48:03;;;;;;;5.33;4.93;;;21.40;99.90;;;;;;5041932;28;20480;-85
2022/09/06 04:50:30;;;;;;;6.33;5.60;;;21.40;99.90;;;;;;5043983;28;20981;-84
2022/09/06 04:52:56;;;;;;;5.73;5.13;;;21.50;99.90;;;;;;5051463;28;20456;-84
2022/09/06 04:55:25;;;;;;;5.20;4.70;;;21.50;99.90;;;;;;5048236;28;20461;-82
2022/09/06 04:57:51;;;;;;;6.63;4.77;;;21.40;99.90;;;;;;5041893;28;20492;-83
2022/09/06 05:00:18;;;;;;;4.27;3.97;;;21.40;99.90;;;;;;5043683;28;20955;-83
2022/09/06 05:02:45;;;;;;;5.13;4.63;;;21.40;99.90;;;;;;5038482;28;20511;-82
2022/09/06 05:05:12;;;;;;;5.23;4.73;;;21.40;99.90;;;;;;5036265;28;20464;-85
2022/09/06 05:07:38;;;;;;;5.13;4.73;;;21.30;99.90;;;;;;5040226;28;20464;-83
2022/09/06 05:10:05;;;;;;;4.40;4.10;;;21.30;99.90;;;;;;5041442;28;20457;-83
2022/09/06 05:12:32;;;;;;;5.20;4.70;;;21.20;99.90;;;;;;5043066;28;20477;-84
2022/09/06 05:14:58;;;;;;;5.67;5.00;;;21.00;99.90;;;;;;5043394;28;20457;-85
2022/09/06 05:17:25;;;;;;;6.30;5.00;;;21.00;99.90;;;;;;5043763;28;20477;-84
2022/09/06 05:19:52;;;;;;;6.10;5.07;;;21.00;99.90;;;;;;5039174;28;20446;-83
2022/09/06 05:22:18;;;;;;;5.00;4.00;;;21.00;99.90;;;;;;5047543;28;20467;-85
2022/09/06 05:24:45;;;;;;;6.33;3.90;;;21.00;99.90;;;;;;5045719;28;20461;-85
2022/09/06 05:27:13;;;;;;;5.10;4.20;;;20.90;99.90;;;;;;5042732;28;20453;-84
2022/09/06 05:29:39;;;;;;;7.53;4.27;;;21.00;99.90;;;;;;5032297;28;20469;-82
2022/09/06 05:32:06;;;;;;;4.63;4.27;;;21.20;99.20;;;;;;5046439;28;20479;-83
2022/09/06 05:34:33;;;;;;;6.13;4.93;;;21.20;99.20;;;;;;5044192;28;21048;-84
2022/09/06 05:36:59;;;;;;;6.57;5.00;;;21.30;99.40;;;;;;5042520;28;20453;-84
2022/09/06 05:39:26;;;;;;;9.63;4.90;;;21.30;99.50;;;;;;5047274;28;20494;-84
2022/09/06 05:41:53;;;;;;;7.70;5.77;;;21.30;99.60;;;;;;5044903;28;20548;-83
2022/09/06 05:44:19;;;;;;;9.53;6.60;;;21.30;99.10;;;;;;5042886;28;20854;-84
2022/09/06 05:46:46;;;;;;;6.70;5.80;;;21.20;99.00;;;;;;5045988;28;20457;-84
2022/09/06 05:49:13;;;;;;;7.80;5.20;;;21.20;99.10;;;;;;5045473;28;20480;-84
2022/09/06 05:51:40;;;;;;;9.07;6.07;;;21.20;99.00;;;;;;5042182;28;20899;-85
2022/09/06 05:54:06;;;;;;;8.90;5.83;;;21.30;99.10;;;;;;5038336;28;20445;-84
2022/09/06 05:56:33;;;;;;;8.47;6.27;;;21.40;99.40;;;;;;5044705;28;20851;-82
2022/09/06 05:59:00;;;;;;;6.03;4.60;;;21.70;98.80;;;;;;5041532;28;20469;-84
2022/09/06 06:01:29;;;;;;;10.30;5.90;;;21.90;97.90;;;;;;5044298;28;20464;-84
2022/09/06 06:03:59;;;;;;;6.27;5.67;;;22.00;97.40;;;;;;5040275;28;20488;-83
2022/09/06 06:06:28;;;;;;;7.83;7.00;;;22.50;98.10;;;;;;5045835;28;20460;-83
2022/09/06 06:08:55;;;;;;;9.70;8.00;;;25.20;94.40;;;;;;5044672;28;20522;-83
2022/09/06 06:11:24;;;;;;;9.37;5.87;;;27.70;89.30;;;;;;5045443;28;20461;-83
2022/09/06 06:13:51;;;;;;;6.40;5.80;;;28.80;79.40;;;;;;5044230;28;20872;-84
2022/09/06 06:16:20;;;;;;;5.77;5.10;;;29.90;76.30;;;;;;5045150;28;20454;-85
2022/09/06 06:18:47;;;;;;;5.67;4.50;;;31.60;66.50;;;;;;5038862;28;20487;-84
2022/09/06 06:21:26;;;;;;;4.57;4.03;;;32.20;61.60;;;;;;5046337;28;20556;-84
2022/09/06 06:23:55;;;;;;;13.17;5.03;;;32.70;60.30;;;;;;5047397;28;20457;-85
2022/09/06 06:26:22;;;;;;;5.90;4.43;;;33.10;58.20;;;;;;5048952;28;20450;-84
2022/09/06 06:28:50;;;;;;;7.23;4.47;;;33.50;57.10;;;;;;5040619;28;20557;-84
2022/09/06 06:31:18;;;;;;;8.90;4.00;;;33.90;55.80;;;;;;5042657;28;20479;-83
2022/09/06 06:33:46;;;;;;;8.53;3.90;;;34.30;54.90;;;;;;5045449;28;20461;-85
2022/09/06 06:36:13;;;;;;;5.37;4.40;;;34.90;53.10;;;;;;5044016;28;20866;-85
2022/09/06 06:38:41;;;;;;;4.37;3.97;;;34.60;52.30;;;;;;5034188;28;20504;-85
2022/09/06 06:41:10;;;;;;;6.87;4.13;;;34.50;52.30;;;;;;5048197;28;20460;-84
2022/09/06 06:43:37;;;;;;;4.97;3.23;;;34.50;52.10;;;;;;5050037;28;20476;-85
2022/09/06 06:46:06;;;;;;;11.73;3.30;;;33.60;52.60;;;;;;5042564;28;20974;-84
2022/09/06 06:48:40;;;;;;;3.03;2.77;;;33.50;52.60;;;;;;5046504;28;20485;-83
2022/09/06 06:51:08;;;;;;;3.33;3.07;;;33.70;52.30;;;;;;5046202;28;20457;-84
2022/09/06 06:53:35;;;;;;;3.83;3.07;;;33.50;52.50;;;;;;5041707;28;20492;-84
2022/09/06 06:56:31;;;;;;;3.57;3.27;;;33.70;52.10;;;;;;5044606;28;20468;-84
2022/09/06 06:59:01;;;;;;;5.17;3.10;;;34.50;50.60;;;;;;5048769;28;20469;-86
2022/09/06 07:01:35;;;;;;;3.40;3.10;;;33.70;50.70;;;;;;5045832;28;20452;-85
2022/09/06 07:04:07;;;;;;;3.53;3.20;;;31.40;54.30;;;;;;5046670;28;20456;-84
2022/09/06 07:06:48;;;;;;;5.63;2.90;;;31.70;55.40;;;;;;5047133;28;20471;-84
2022/09/06 07:09:35;;;;;;;3.37;3.07;;;32.70;53.60;;;;;;5044316;28;20471;-82
2022/09/06 07:12:22;;;;;;;4.43;3.17;;;33.80;51.80;;;;;;5047435;28;20472;-84
2022/09/06 07:14:49;;;;;;;3.23;2.90;;;33.90;50.90;;;;;;5048612;28;20441;-83
2022/09/06 07:17:16;;;;;;;5.37;3.20;;;34.60;48.80;;;;;;5054289;28;20517;-82
2022/09/06 07:19:42;;;;;;;4.80;3.00;;;35.10;48.10;;;;;;5049045;28;20563;-84
2022/09/06 07:22:29;;;;;;;2.87;2.67;;;35.10;47.40;;;;;;5035655;28;20505;-85
2022/09/06 07:24:56;;;;;;;2.90;2.70;;;35.40;47.20;;;;;;5045587;28;20476;-84
2022/09/06 07:27:22;;;;;;;3.60;3.00;;;35.50;46.50;;;;;;5039398;28;20474;-84
2022/09/06 07:30:10;;;;;;;3.23;2.70;;;35.20;46.40;;;;;;5043292;28;20803;-84
2022/09/06 07:32:36;;;;;;;4.67;3.03;;;35.30;46.10;;;;;;5042277;28;20503;-84
2022/09/06 07:35:04;;;;;;;7.17;2.97;;;35.20;45.70;;;;;;5050562;28;20433;-82
2022/09/06 07:37:32;;;;;;;4.00;2.30;;;33.90;47.50;;;;;;5046997;28;20959;-83
2022/09/06 07:39:59;;;;;;;6.30;2.80;;;35.20;46.20;;;;;;5048670;28;20473;-84
2022/09/06 07:42:26;;;;;;;8.47;2.87;;;35.70;44.50;;;;;;5043108;28;20458;-84
2022/09/06 07:44:56;;;;;;;3.97;2.23;;;35.50;44.80;;;;;;5039771;28;20452;-85
2022/09/06 07:47:23;;;;;;;3.10;2.30;;;34.90;45.30;;;;;;5039677;28;20472;-83
2022/09/06 07:50:11;;;;;;;3.27;2.67;;;36.00;44.20;;;;;;5041051;28;20433;-83
2022/09/06 07:53:07;;;;;;;3.47;2.30;;;36.10;43.30;;;;;;5033113;28;20469;-84
2022/09/06 07:55:35;;;;;;;2.90;2.23;;;35.50;44.00;;;;;;5042475;28;20434;-84
2022/09/06 07:58:01;;;;;;;4.87;2.40;;;35.10;44.60;;;;;;5044483;28;20476;-84
2022/09/06 08:00:28;;;;;;;2.57;1.87;;;35.10;44.30;;;;;;5043987;28;20461;-84
2022/09/06 08:02:55;;;;;;;2.90;2.03;;;34.90;44.40;;;;;;5043205;28;20450;-84
2022/09/06 08:05:21;;;;;;;1.97;1.83;;;35.10;44.30;;;;;;5043791;28;20449;-86
2022/09/06 08:08:08;;;;;;;3.43;1.50;;;34.80;44.40;;;;;;5036710;28;20437;-83
2022/09/06 08:10:55;;;;;;;3.33;1.80;;;35.10;44.10;;;;;;5044747;28;20536;-83
2022/09/06 08:13:22;;;;;;;3.00;1.73;;;35.00;44.30;;;;;;5043946;28;21107;-82
2022/09/06 08:15:56;;;;;;;2.63;1.50;;;36.30;42.70;;;;;;5045169;28;20477;-83
2022/09/06 08:18:23;;;;;;;2.10;1.90;;;36.80;42.20;;;;;;5046562;28;20504;-85
2022/09/06 08:20:50;;;;;;;2.13;1.43;;;37.30;40.80;;;;;;5044627;28;20559;-85
2022/09/06 08:23:17;;;;;;;1.67;1.57;;;35.70;42.00;;;;;;5045529;28;20539;-84
2022/09/06 08:25:43;;;;;;;1.63;1.40;;;36.60;41.20;;;;;;5044289;28;20449;-85
2022/09/06 08:28:10;;;;;;;1.57;1.47;;;36.40;40.70;;;;;;5041884;28;20477;-84
2022/09/06 08:30:37;;;;;;;1.70;1.60;;;36.40;40.70;;;;;;5048438;28;20472;-84
2022/09/06 08:33:03;;;;;;;2.20;1.37;;;37.20;40.10;;;;;;5044361;28;20506;-84
2022/09/06 08:35:30;;;;;;;5.63;1.70;;;37.00;40.00;;;;;;5047705;28;20429;-85
2022/09/06 08:37:57;;;;;;;3.43;1.53;;;37.70;38.60;;;;;;5041894;28;20477;-82
2022/09/06 08:40:24;;;;;;;3.33;1.40;;;36.70;39.30;;;;;;5043986;28;20457;-83
2022/09/06 08:42:51;;;;;;;1.60;1.50;;;36.20;40.00;;;;;;5041767;28;20904;-84
2022/09/06 08:45:22;;;;;;;1.53;1.43;;;36.10;40.40;;;;;;5030232;28;21126;-83
2022/09/06 08:47:51;;;;;;;2.63;1.50;;;35.90;40.70;;;;;;5040021;28;20472;-86
2022/09/06 08:50:18;;;;;;;1.90;1.70;;;36.60;40.00;;;;;;5045948;28;20458;-84
2022/09/06 08:53:09;;;;;;;2.00;1.80;;;37.40;39.00;;;;;;5040616;28;20890;-83
2022/09/06 08:56:03;;;;;;;4.27;1.77;;;35.80;40.30;;;;;;5028470;28;20548;-83
2022/09/06 08:58:38;;;;;;;7.10;3.23;;;34.10;43.50;;;;;;5042558;28;20465;-84
2022/09/06 09:01:18;;;;;;;1.70;1.60;;;33.60;43.90;;;;;;5042819;28;20826;-85
2022/09/06 09:03:45;;;;;;;3.00;1.40;;;32.20;45.80;;;;;;5041882;28;20449;-84
2022/09/06 09:06:12;;;;;;;3.17;1.73;;;32.60;45.80;;;;;;5043964;28;20453;-84
2022/09/06 09:08:46;;;;;;;1.67;1.33;;;33.40;44.30;;;;;;5043938;28;20465;-84
2022/09/06 09:11:18;;;;;;;3.90;1.90;;;34.00;43.90;;;;;;5043802;28;20437;-83
2022/09/06 09:13:54;;;;;;;2.53;1.60;;;34.70;42.60;;;;;;5043218;28;20511;-84
2022/09/06 09:16:22;;;;;;;1.70;1.40;;;35.00;42.00;;;;;;5048951;28;20456;-84
2022/09/06 09:18:54;;;;;;;3.07;1.70;;;35.10;41.40;;;;;;5055336;28;20597;-82
2022/09/06 09:21:24;;;;;;;4.43;1.53;;;35.00;41.80;;;;;;5054478;28;20441;-83
2022/09/06 09:23:58;;;;;;;1.80;1.40;;;35.50;41.20;;;;;;5054731;28;20441;-83
2022/09/06 09:26:30;;;;;;;2.30;1.30;;;35.70;40.00;;;;;;5051460;28;20449;-80
2022/09/06 09:29:11;;;;;;;2.43;1.40;;;35.80;40.10;;;;;;5055107;28;20460;-80
2022/09/06 09:31:41;;;;;;;1.80;1.17;;;35.20;40.30;;;;;;5054646;28;20437;-84
2022/09/06 09:34:35;;;;;;;0.90;0.90;;;35.60;39.80;;;;;;5053330;28;20532;-81
2022/09/06 09:37:21;;;;;;;2.20;1.40;;;36.40;38.30;;;;;;5039494;28;20442;-83
2022/09/06 09:40:24;;;;;;;1.40;1.20;;;36.60;38.40;;;;;;5051252;28;20468;-83
2022/09/06 09:42:53;;;;;;;1.20;1.10;;;36.30;37.90;;;;;;5049857;28;20446;-84
2022/09/06 09:45:20;;;;;;;1.80;1.47;;;36.30;38.50;;;;;;5055184;28;20493;-86
2022/09/06 09:47:47;;;;;;;1.13;1.10;;;36.40;38.50;;;;;;5054321;28;20426;-83
2022/09/06 09:50:25;;;;;;;1.10;1.00;;;36.40;37.90;;;;;;5054845;28;20421;-85
2022/09/06 09:52:52;;;;;;;1.40;1.30;;;36.30;38.00;;;;;;5047784;28;20495;-84
2022/09/06 09:55:27;;;;;;;1.53;1.43;;;36.30;37.80;;;;;;5053565;28;20448;-86
2022/09/06 09:57:55;;;;;;;2.00;1.10;;;36.10;38.40;;;;;;5044333;28;20475;-83
2022/09/06 10:00:38;;;;;;;2.33;1.10;;;35.70;38.50;;;;;;5053771;28;20449;-85
2022/09/06 10:03:17;;;;;;;2.97;1.17;;;36.20;38.00;;;;;;5041447;28;20449;-86
2022/09/06 10:05:56;;;;;;;1.33;1.00;;;35.70;38.50;;;;;;5039692;28;20802;-85
2022/09/06 10:08:31;;;;;;;1.67;1.20;;;36.10;37.80;;;;;;5046160;28;20491;-85
2022/09/06 10:10:58;;;;;;;1.17;1.07;;;35.20;39.00;;;;;;5048510;28;20456;-85
2022/09/06 10:13:29;;;;;;;1.20;1.10;;;36.30;37.80;;;;;;5048865;28;21033;-86
2022/09/06 10:15:58;;;;;;;1.43;1.33;;;36.80;37.40;;;;;;5048124;28;20445;-84
2022/09/06 10:18:42;;;;;;;2.03;1.50;;;37.00;36.60;;;;;;5048059;28;20484;-84
2022/09/06 10:21:12;;;;;;;2.00;1.20;;;36.80;36.50;;;;;;5047212;28;20444;-84
2022/09/06 10:24:01;;;;;;;1.47;1.20;;;36.20;37.40;;;;;;5047893;28;20451;-85
2022/09/06 10:26:57;;;;;;;1.27;0.90;;;36.30;37.30;;;;;;5048153;28;20448;-84
2022/09/06 10:29:39;;;;;;;1.43;1.30;;;35.80;37.90;;;;;;5046483;28;20488;-84
2022/09/06 10:32:43;;;;;;;1.60;1.30;;;35.30;39.00;;;;;;5050183;28;20455;-85
2022/09/06 10:35:23;;;;;;;2.50;1.27;;;36.10;38.20;;;;;;5043873;28;20449;-82
2022/09/06 10:38:04;;;;;;;1.00;0.90;;;36.30;38.30;;;;;;5046930;28;20538;-85
2022/09/06 10:40:38;;;;;;;3.53;1.60;;;35.60;38.90;;;;;;5052264;28;20464;-84
2022/09/06 10:43:07;;;;;;;2.83;0.90;;;36.30;37.90;;;;;;5048618;28;20544;-86
2022/09/06 10:45:48;;;;;;;2.10;1.20;;;36.20;37.70;;;;;;5047494;28;20438;-84
2022/09/06 10:48:27;;;;;;;3.70;1.03;;;36.10;37.90;;;;;;5046788;28;20477;-85
2022/09/06 10:51:11;;;;;;;3.00;1.30;;;36.40;37.60;;;;;;5031329;28;20480;-85
2022/09/06 10:54:00;;;;;;;1.57;1.00;;;36.50;37.20;;;;;;5046288;28;20480;-85
2022/09/06 10:56:45;;;;;;;1.47;1.30;;;36.20;37.70;;;;;;5046112;28;20442;-84
2022/09/06 10:59:25;;;;;;;4.43;1.63;;;35.60;38.50;;;;;;5047208;28;20529;-84
2022/09/06 11:02:41;;;;;;;3.53;1.30;;;35.60;39.00;;;;;;5045350;28;20464;-85
2022/09/06 11:05:19;;;;;;;1.50;1.40;;;35.90;38.60;;;;;;5048821;28;20433;-84
2022/09/06 11:08:55;;;;;;;1.40;1.10;;;36.10;38.10;;;;;;5037580;28;20567;-84
2022/09/06 11:11:34;;;;;;;1.50;1.17;;;36.00;38.30;;;;;;5041773;28;20453;-83
2022/09/06 11:14:08;;;;;;;2.87;1.53;;;36.30;37.90;;;;;;5033247;28;20468;-85
2022/09/06 11:16:58;;;;;;;1.70;1.10;;;36.20;38.50;;;;;;5044858;28;20433;-84
2022/09/06 11:19:55;;;;;;;1.93;1.47;;;36.20;38.50;;;;;;5044894;28;20477;-84
2022/09/06 11:22:54;;;;;;;1.73;1.27;;;36.60;37.80;;;;;;5034649;28;20536;-85
2022/09/06 11:25:29;;;;;;;3.93;1.20;;;37.10;36.90;;;;;;5047936;28;20450;-84
2022/09/06 11:28:00;;;;;;;2.23;1.20;;;36.70;37.60;;;;;;5042346;28;20982;-84
2022/09/06 11:30:29;;;;;;;1.77;1.20;;;35.80;38.00;;;;;;5043763;28;20513;-85
2022/09/06 11:33:26;;;;;;;3.00;1.60;;;35.30;38.70;;;;;;5044376;28;20493;-84
2022/09/06 11:36:17;;;;;;;2.53;1.40;;;35.50;39.10;;;;;;5017007;28;20461;-85
2022/09/06 11:38:57;;;;;;;1.60;1.13;;;35.60;39.00;;;;;;5044664;28;20473;-84
2022/09/06 11:41:32;;;;;;;1.50;1.03;;;35.70;38.80;;;;;;5046135;28;20445;-84
2022/09/06 11:44:00;;;;;;;6.33;1.30;;;36.10;37.70;;;;;;5045052;28;20447;-85
2022/09/06 11:46:32;;;;;;;3.13;1.23;;;37.30;36.50;;;;;;5038364;28;20445;-84
2022/09/06 11:49:28;;;;;;;1.33;1.10;;;36.70;36.70;;;;;;5034962;28;20522;-85
2022/09/06 11:51:55;;;;;;;1.70;1.60;;;36.60;37.40;;;;;;5032455;28;21178;-84
2022/09/06 11:54:40;;;;;;;2.17;1.47;;;37.00;36.70;;;;;;5032837;28;20473;-84
2022/09/06 11:57:07;;;;;;;1.97;1.20;;;36.70;36.70;;;;;;5036052;28;20425;-84
2022/09/06 11:59:50;;;;;;;1.40;1.30;;;36.60;37.40;;;;;;5036635;28;20465;-83
2022/09/06 12:02:39;;;;;;;1.50;1.40;;;37.40;35.90;;;;;;5034971;28;20432;-84
2022/09/06 12:05:08;;;;;;;1.70;1.60;;;37.60;35.90;;;;;;5035665;28;20437;-82
2022/09/06 12:08:23;;;;;;;1.60;1.50;;;36.70;36.40;;;;;;5045381;28;20449;-84
2022/09/06 12:10:55;;;;;;;4.20;2.27;;;36.30;37.20;;;;;;5043327;28;20440;-85
2022/09/06 12:13:53;;;;;;;1.60;1.20;;;36.50;37.40;;;;;;5045179;28;20473;-86
2022/09/06 12:16:21;;;;;;;1.43;1.33;;;36.80;36.60;;;;;;5037757;28;20452;-84
2022/09/06 12:18:47;;;;;;;1.43;1.33;;;37.20;36.40;;;;;;5045453;28;20476;-85
2022/09/06 12:21:41;;;;;;;1.47;1.37;;;37.10;36.30;;;;;;5044525;28;20461;-85
2022/09/06 12:24:34;;;;;;;1.57;1.30;;;36.70;36.70;;;;;;5034424;28;20451;-85
2022/09/06 12:27:18;;;;;;;1.70;1.37;;;36.70;36.60;;;;;;5044306;28;20505;-85
2022/09/06 12:30:07;;;;;;;3.70;1.77;;;36.70;36.80;;;;;;5053900;28;20457;-84
2022/09/06 12:32:44;;;;;;;2.00;1.43;;;37.20;36.30;;;;;;5055615;28;20449;-84
2022/09/06 12:35:16;;;;;;;3.07;1.70;;;36.90;36.60;;;;;;5056356;28;20447;-83
2022/09/06 12:38:05;;;;;;;2.80;1.50;;;36.70;36.60;;;;;;5033613;28;20454;-83
2022/09/06 12:40:42;;;;;;;1.57;1.47;;;36.30;36.90;;;;;;5033366;28;20477;-84
2022/09/06 12:43:11;;;;;;;2.30;1.80;;;36.00;37.60;;;;;;5048889;28;20441;-84
2022/09/06 12:45:43;;;;;;;1.47;1.37;;;36.30;37.10;;;;;;5046563;28;20453;-84
2022/09/06 12:48:25;;;;;;;2.80;1.43;;;36.00;37.40;;;;;;5045550;28;20517;-82
2022/09/06 12:51:15;;;;;;;2.70;1.40;;;36.00;37.80;;;;;;5042505;28;20449;-85
2022/09/06 12:54:00;;;;;;;3.67;1.77;;;35.80;37.70;;;;;;5036002;28;20461;-85
2022/09/06 12:56:29;;;;;;;2.87;1.60;;;35.60;38.10;;;;;;5039079;28;20461;-85
2022/09/06 12:59:18;;;;;;;3.60;1.70;;;35.40;38.50;;;;;;5042357;28;20544;-85
2022/09/06 13:01:55;;;;;;;1.93;1.50;;;35.40;38.60;;;;;;5044880;28;20490;-84
2022/09/06 13:04:38;;;;;;;3.70;2.07;;;35.10;38.90;;;;;;5048687;28;20441;-86
2022/09/06 13:07:10;;;;;;;2.00;1.80;;;35.60;38.60;;;;;;5038559;28;20494;-83
2022/09/06 13:09:45;;;;;;;1.50;1.40;;;35.70;37.90;;;;;;5038339;28;20477;-83
2022/09/06 13:12:32;;;;;;;3.97;1.27;;;35.50;38.20;;;;;;5039763;28;20514;-83
2022/09/06 13:15:16;;;;;;;2.27;1.90;;;35.70;38.20;;;;;;5039510;28;20482;-84
2022/09/06 13:17:43;;;;;;;1.23;1.23;;;35.60;37.90;;;;;;5044798;28;20442;-84
2022/09/06 13:20:21;;;;;;;1.73;1.63;;;35.40;38.30;;;;;;5045309;28;20437;-85